createdAt,value
2023-09-04T00:02:24.646Z,101299.28
2023-09-04T00:07:26.274Z,101287.06
2023-09-04T00:12:27.954Z,101282.44
2023-09-04T00:17:31.353Z,101290.50
2023-09-04T00:22:33.079Z,101295.69
2023-09-04T00:27:34.737Z,101287.19
2023-09-04T00:32:36.393Z,101290.50
2023-09-04T00:37:38.033Z,101299.38
2023-09-04T00:42:39.727Z,101296.53
2023-09-04T00:47:45.939Z,101302.53
2023-09-04T00:52:48.527Z,101300.22
2023-09-04T00:57:50.838Z,101301.34
2023-09-04T01:02:52.894Z,101305.09
2023-09-04T01:07:55.089Z,101288.16
2023-09-04T01:13:05.150Z,101280.63
2023-09-04T01:18:07.619Z,101272.81
2023-09-04T01:23:09.875Z,101274.03
2023-09-04T01:28:29.740Z,101270.44
2023-09-04T01:33:37.433Z,101266.91
2023-09-04T01:38:39.185Z,101268.59
2023-09-04T01:43:41.014Z,101272.13
2023-09-04T01:48:42.631Z,101279.72
2023-09-04T01:53:44.295Z,101280.31
2023-09-04T01:58:45.895Z,101271.81
2023-09-04T02:03:58.123Z,101273.03
2023-09-04T02:08:59.799Z,101284.47
2023-09-04T02:14:01.454Z,101289.94
2023-09-04T02:19:03.310Z,101301.53
2023-09-04T02:24:05.102Z,101290.25
2023-09-04T02:29:06.741Z,101288.44
2023-09-04T02:34:08.369Z,101287.78
2023-09-04T02:39:10.023Z,101275.06
2023-09-04T02:44:11.613Z,101265.13
2023-09-04T02:49:13.223Z,101264.69
2023-09-04T02:54:14.809Z,101267.94
2023-09-04T02:59:17.222Z,101279.47
2023-09-04T03:04:18.848Z,101275.72
2023-09-04T03:09:20.442Z,101299.53
2023-09-04T03:14:22.187Z,101290.34
2023-09-04T03:19:23.762Z,101311.03
2023-09-04T03:24:25.844Z,101314.44
2023-09-04T03:29:27.618Z,101304.28
2023-09-04T03:34:30.682Z,101310.34
2023-09-04T03:39:38.394Z,101314.25
2023-09-04T03:44:40.112Z,101313.06
2023-09-04T03:49:41.722Z,101304.47
2023-09-04T03:54:43.320Z,101303.34
2023-09-04T03:59:44.985Z,101318.97
2023-09-04T04:04:46.598Z,101317.75
2023-09-04T04:09:48.947Z,101314.25
2023-09-04T04:14:54.612Z,101301.16
2023-09-04T04:19:56.737Z,101309.06
2023-09-04T04:24:58.335Z,101312.31
2023-09-04T04:30:00.205Z,101327.19
2023-09-04T04:35:01.836Z,101336.53
2023-09-04T04:40:06.285Z,101348.78
2023-09-04T04:45:08.600Z,101349.97
2023-09-04T04:50:10.968Z,101366.88
2023-09-04T04:55:12.912Z,101386.50
2023-09-04T05:00:14.832Z,101376.47
2023-09-04T05:05:17.001Z,101384.50
2023-09-04T05:10:18.674Z,101393.28
2023-09-04T05:15:20.253Z,101393.00
2023-09-04T05:20:22.478Z,101387.22
2023-09-04T05:25:24.144Z,101382.00
2023-09-04T05:30:25.766Z,101370.00
2023-09-04T05:35:27.483Z,101369.94
2023-09-04T05:40:29.120Z,101381.56
2023-09-04T05:45:30.783Z,101392.22
2023-09-04T05:50:32.371Z,101397.69
2023-09-04T05:55:37.622Z,101389.59
2023-09-04T06:00:39.568Z,101391.41
2023-09-04T06:05:41.719Z,101389.47
2023-09-04T06:10:43.358Z,101386.19
2023-09-04T06:15:44.972Z,101396.91
2023-09-04T06:20:48.211Z,101401.53
2023-09-04T06:25:49.839Z,101402.19
2023-09-04T06:30:51.597Z,101391.84
2023-09-04T06:35:53.610Z,101394.41
2023-09-04T06:40:58.970Z,101397.59
2023-09-04T06:46:03.148Z,101402.53
2023-09-04T06:51:04.932Z,101410.34
2023-09-04T06:56:06.579Z,101406.88
2023-09-04T07:01:08.259Z,101398.66
2023-09-04T07:06:09.891Z,101394.75
2023-09-04T07:11:11.548Z,101401.38
2023-09-04T07:16:23.215Z,101402.38
2023-09-04T07:21:34.704Z,101407.84
2023-09-04T07:26:36.352Z,101414.28
2023-09-04T07:31:38.221Z,101412.72
2023-09-04T07:36:39.882Z,101413.28
2023-09-04T07:41:41.505Z,101415.28
2023-09-04T07:46:43.086Z,101419.41
2023-09-04T07:51:44.768Z,101411.81
2023-09-04T07:56:46.365Z,101417.16
2023-09-04T08:01:48.075Z,101419.06
2023-09-04T08:06:49.714Z,101419.38
2023-09-04T08:11:51.820Z,101421.47
2023-09-04T08:16:53.449Z,101429.38
2023-09-04T08:21:55.081Z,101427.88
2023-09-04T08:26:56.950Z,101440.50
2023-09-04T08:31:58.536Z,101450.56
2023-09-04T08:37:00.134Z,101450.34
2023-09-04T08:42:05.240Z,101446.19
2023-09-04T08:47:09.186Z,101441.09
2023-09-04T08:52:11.156Z,101440.94
2023-09-04T08:57:13.393Z,101449.34
2023-09-04T09:02:17.189Z,101447.31
2023-09-04T09:07:21.498Z,101449.72
2023-09-04T09:12:23.109Z,101438.44
2023-09-04T09:17:24.747Z,101446.72
2023-09-04T09:22:26.640Z,101437.31
2023-09-04T09:27:33.295Z,101433.09
2023-09-04T09:32:34.930Z,101428.28
2023-09-04T09:37:36.854Z,101430.59
2023-09-04T09:42:38.566Z,101428.91
2023-09-04T09:47:40.587Z,101423.69
2023-09-04T09:53:04.430Z,101424.47
2023-09-04T09:58:08.093Z,101412.72
2023-09-04T10:03:10.026Z,101421.06
2023-09-04T10:08:14.282Z,101424.31
2023-09-04T10:13:23.616Z,101428.63
2023-09-04T10:18:31.232Z,101424.50
2023-09-04T10:23:45.440Z,101411.75
2023-09-04T10:28:59.041Z,101403.50
2023-09-04T10:34:02.099Z,101401.56
2023-09-04T10:39:04.964Z,101408.66
2023-09-04T10:44:06.767Z,101401.41
2023-09-04T10:49:08.585Z,101386.94
2023-09-04T10:54:19.339Z,101386.97
2023-09-04T10:59:21.077Z,101388.34
2023-09-04T11:04:48.518Z,101366.31
2023-09-04T11:09:54.204Z,101366.09
2023-09-04T11:14:56.998Z,101358.00
2023-09-04T11:20:01.566Z,101371.09
2023-09-04T11:25:03.317Z,101370.06
2023-09-04T11:30:05.842Z,101370.06
2023-09-04T11:35:16.631Z,101372.63
2023-09-04T11:40:18.238Z,101369.00
2023-09-04T11:45:19.921Z,101367.25
2023-09-04T11:50:21.706Z,101367.75
2023-09-04T11:55:25.581Z,101377.00
2023-09-04T12:00:27.246Z,101371.00
2023-09-04T12:05:29.093Z,101368.47
2023-09-04T12:10:33.829Z,101371.44
2023-09-04T12:15:35.719Z,101363.44
2023-09-04T12:20:40.518Z,101358.56
2023-09-04T12:25:45.262Z,101355.88
2023-09-04T12:30:51.479Z,101349.19
2023-09-04T12:35:58.135Z,101348.41
2023-09-04T12:40:59.919Z,101350.47
2023-09-04T12:46:02.555Z,101339.47
2023-09-04T12:51:04.372Z,101345.13
2023-09-04T12:56:07.184Z,101339.81
2023-09-04T13:01:08.955Z,101341.75
2023-09-04T13:06:10.627Z,101333.69
2023-09-04T13:11:12.247Z,101326.75
2023-09-04T13:16:13.918Z,101318.59
2023-09-04T13:21:15.562Z,101298.91
2023-09-04T13:26:19.495Z,101296.47
2023-09-04T13:31:21.176Z,101303.22
2023-09-04T13:36:22.887Z,101305.78
2023-09-04T13:41:24.465Z,101303.06
2023-09-04T13:46:26.146Z,101302.06
2023-09-04T13:51:27.843Z,101302.09
2023-09-04T13:56:29.567Z,101295.97
2023-09-04T14:01:31.185Z,101295.09
2023-09-04T14:06:32.871Z,101291.13
2023-09-04T14:11:35.127Z,101296.06
2023-09-04T14:16:36.836Z,101295.59
2023-09-04T14:21:39.226Z,101285.59
2023-09-04T14:26:41.246Z,101289.59
2023-09-04T14:31:42.961Z,101285.13
2023-09-04T14:37:02.282Z,101271.13
2023-09-04T14:42:06.131Z,101275.66
2023-09-04T14:47:07.771Z,101266.34
2023-09-04T14:52:09.369Z,101278.94
2023-09-04T14:57:11.385Z,101278.06
2023-09-04T15:02:13.111Z,101275.16
2023-09-04T15:07:14.804Z,101277.25
2023-09-04T15:12:16.533Z,101270.88
2023-09-04T15:17:18.222Z,101266.09
2023-09-04T15:22:19.825Z,101268.16
2023-09-04T15:27:21.467Z,101262.00
2023-09-04T15:32:23.044Z,101270.41
2023-09-04T15:37:25.833Z,101268.56
2023-09-04T15:42:27.464Z,101270.66
2023-09-04T15:47:32.031Z,101280.59
2023-09-04T15:52:33.870Z,101276.09
2023-09-04T15:57:35.601Z,101271.13
2023-09-04T16:02:37.451Z,101264.44
2023-09-04T16:07:39.142Z,101266.16
2023-09-04T16:12:40.967Z,101278.53
2023-09-04T16:17:42.626Z,101264.78
2023-09-04T16:22:44.262Z,101277.84
2023-09-04T16:27:45.913Z,101270.63
2023-09-04T16:32:47.907Z,101267.16
2023-09-04T16:37:49.845Z,101274.41
2023-09-04T16:42:51.816Z,101276.81
2023-09-04T16:47:53.566Z,101274.75
2023-09-04T16:52:56.305Z,101277.16
2023-09-04T16:57:57.928Z,101275.22
2023-09-04T17:02:59.670Z,101277.16
2023-09-04T17:08:02.049Z,101279.00
2023-09-04T17:13:03.825Z,101274.53
2023-09-04T17:18:05.779Z,101281.19
2023-09-04T17:23:08.470Z,101280.84
2023-09-04T17:28:10.168Z,101279.75
2023-09-04T17:33:11.964Z,101281.09
2023-09-04T17:38:13.667Z,101287.25
2023-09-04T17:43:15.298Z,101278.66
2023-09-04T17:48:16.890Z,101283.06
2023-09-04T17:53:18.507Z,101283.22
2023-09-04T17:58:20.166Z,101278.03
2023-09-04T18:03:22.696Z,101282.94
2023-09-04T18:08:25.541Z,101287.31
2023-09-04T18:13:27.351Z,101286.22
2023-09-04T18:18:28.951Z,101298.03
2023-09-04T18:23:30.548Z,101296.78
2023-09-04T18:28:32.145Z,101308.41
2023-09-04T18:33:33.732Z,101296.09
2023-09-04T18:38:35.333Z,101310.00
2023-09-04T18:43:37.311Z,101303.13
2023-09-04T18:48:38.933Z,101299.13
2023-09-04T18:53:41.603Z,101306.97
2023-09-04T18:58:43.241Z,101305.78
2023-09-04T19:03:44.932Z,101302.00
2023-09-04T19:08:46.565Z,101304.84
2023-09-04T19:13:48.176Z,101302.59
2023-09-04T19:18:54.031Z,101304.22
2023-09-04T19:23:55.654Z,101307.44
2023-09-04T19:28:57.255Z,101300.22
2023-09-04T19:33:58.949Z,101300.53
2023-09-04T19:39:00.562Z,101306.91
2023-09-04T19:44:02.183Z,101309.66
2023-09-04T19:49:03.823Z,101309.78
2023-09-04T19:54:05.443Z,101307.22
2023-09-04T19:59:07.041Z,101307.75
2023-09-04T20:04:09.749Z,101310.09
2023-09-04T20:09:11.992Z,101307.00
2023-09-04T20:14:13.627Z,101300.84
2023-09-04T20:19:15.253Z,101308.53
2023-09-04T20:24:16.932Z,101305.66
2023-09-04T20:29:19.173Z,101308.53
2023-09-04T20:34:20.852Z,101305.78
2023-09-04T20:39:22.443Z,101309.66
2023-09-04T20:44:24.024Z,101302.97
2023-09-04T20:49:25.676Z,101305.66
2023-09-04T20:54:27.319Z,101308.16
2023-09-04T20:59:28.941Z,101312.91
2023-09-04T21:04:30.566Z,101305.13
2023-09-04T21:09:32.100Z,101309.75
2023-09-04T21:14:52.106Z,101309.47
2023-09-04T21:20:12.280Z,101315.25
2023-09-04T21:25:32.748Z,101303.59
2023-09-04T21:30:52.874Z,101305.81
2023-09-04T21:36:12.776Z,101305.31
2023-09-04T21:41:32.706Z,101308.66
2023-09-04T21:46:53.015Z,101316.56
2023-09-04T21:52:13.272Z,101318.19
2023-09-04T21:57:33.305Z,101322.66
2023-09-04T22:02:53.629Z,101324.91
2023-09-04T22:08:13.601Z,101323.94
2023-09-04T22:13:33.474Z,101317.47
2023-09-04T22:18:54.288Z,101321.53
2023-09-04T22:24:14.168Z,101323.50
2023-09-04T22:29:34.094Z,101323.81
2023-09-04T22:34:54.021Z,101327.91
2023-09-04T22:40:14.085Z,101318.13
2023-09-04T22:45:33.955Z,101312.97
2023-09-04T22:50:54.194Z,101312.06
2023-09-04T22:56:14.130Z,101320.28
2023-09-04T23:01:34.639Z,101304.59
2023-09-04T23:06:55.097Z,101302.88
2023-09-04T23:12:15.079Z,101297.69
2023-09-04T23:17:35.088Z,101307.09
2023-09-04T23:22:37.910Z,101295.16
2023-09-04T23:27:39.545Z,101298.63
2023-09-04T23:33:02.879Z,101290.81
2023-09-04T23:38:07.756Z,101306.94
2023-09-04T23:43:28.077Z,101294.28
2023-09-04T23:48:30.914Z,101289.22
2023-09-04T23:53:32.537Z,101282.88
2023-09-04T23:58:34.118Z,101285.63
